sensor_id;sensor_type;location;lat;lon;timestamp;temperature;humidity
54431;DHT22;40342;52.998;5.862;2023-05-28T00:01:32;12.40;99.90
54431;DHT22;40342;52.998;5.862;2023-05-28T00:03:58;12.40;99.90
54431;DHT22;40342;52.998;5.862;2023-05-28T00:06:23;12.40;99.90
54431;DHT22;40342;52.998;5.862;2023-05-28T00:08:49;12.50;99.90
54431;DHT22;40342;52.998;5.862;2023-05-28T00:11:14;12.50;99.90
54431;DHT22;40342;52.998;5.862;2023-05-28T00:13:40;12.50;99.90
54431;DHT22;40342;52.998;5.862;2023-05-28T00:16:06;12.50;99.90
54431;DHT22;40342;52.998;5.862;2023-05-28T00:18:32;12.40;99.90
54431;DHT22;40342;52.998;5.862;2023-05-28T00:20:58;12.40;99.90
54431;DHT22;40342;52.998;5.862;2023-05-28T00:23:23;12.40;99.90
54431;DHT22;40342;52.998;5.862;2023-05-28T00:25:49;12.40;99.90
54431;DHT22;40342;52.998;5.862;2023-05-28T00:28:15;12.40;99.90
54431;DHT22;40342;52.998;5.862;2023-05-28T00:30:40;12.30;99.90
54431;DHT22;40342;52.998;5.862;2023-05-28T00:33:06;12.30;99.90
54431;DHT22;40342;52.998;5.862;2023-05-28T00:35:31;12.30;99.90
54431;DHT22;40342;52.998;5.862;2023-05-28T00:37:57;12.30;99.90
54431;DHT22;40342;52.998;5.862;2023-05-28T00:40:22;12.30;99.90
54431;DHT22;40342;52.998;5.862;2023-05-28T00:42:48;12.30;99.90
54431;DHT22;40342;52.998;5.862;2023-05-28T00:45:14;12.30;99.90
54431;DHT22;40342;52.998;5.862;2023-05-28T00:47:40;12.20;99.90
54431;DHT22;40342;52.998;5.862;2023-05-28T00:50:07;12.20;99.90
54431;DHT22;40342;52.998;5.862;2023-05-28T00:52:35;12.20;99.90
54431;DHT22;40342;52.998;5.862;2023-05-28T00:55:01;12.20;99.90
54431;DHT22;40342;52.998;5.862;2023-05-28T00:57:27;12.20;99.90
54431;DHT22;40342;52.998;5.862;2023-05-28T00:59:53;12.20;99.90
54431;DHT22;40342;52.998;5.862;2023-05-28T01:02:22;12.20;99.90
54431;DHT22;40342;52.998;5.862;2023-05-28T01:04:48;12.20;99.90
54431;DHT22;40342;52.998;5.862;2023-05-28T01:07:16;12.20;99.90
54431;DHT22;40342;52.998;5.862;2023-05-28T01:09:42;12.20;99.90
54431;DHT22;40342;52.998;5.862;2023-05-28T01:12:08;12.10;99.90
54431;DHT22;40342;52.998;5.862;2023-05-28T01:14:35;12.10;99.90
54431;DHT22;40342;52.998;5.862;2023-05-28T01:17:03;12.10;99.90
54431;DHT22;40342;52.998;5.862;2023-05-28T01:19:29;12.10;99.90
54431;DHT22;40342;52.998;5.862;2023-05-28T01:22:04;12.10;99.90
54431;DHT22;40342;52.998;5.862;2023-05-28T01:24:31;12.10;99.90
54431;DHT22;40342;52.998;5.862;2023-05-28T01:26:57;12.00;99.90
54431;DHT22;40342;52.998;5.862;2023-05-28T01:29:23;12.00;99.90
54431;DHT22;40342;52.998;5.862;2023-05-28T01:31:49;12.00;99.90
54431;DHT22;40342;52.998;5.862;2023-05-28T01:34:14;12.00;99.90
54431;DHT22;40342;52.998;5.862;2023-05-28T01:36:44;12.00;99.90
54431;DHT22;40342;52.998;5.862;2023-05-28T01:39:14;11.90;99.90
54431;DHT22;40342;52.998;5.862;2023-05-28T01:41:41;11.90;99.90
54431;DHT22;40342;52.998;5.862;2023-05-28T01:44:07;11.90;99.90
54431;DHT22;40342;52.998;5.862;2023-05-28T01:46:34;11.90;99.90
54431;DHT22;40342;52.998;5.862;2023-05-28T01:49:00;11.80;99.90
54431;DHT22;40342;52.998;5.862;2023-05-28T01:51:26;11.80;99.90
54431;DHT22;40342;52.998;5.862;2023-05-28T01:53:52;11.80;99.90
54431;DHT22;40342;52.998;5.862;2023-05-28T01:56:18;11.80;99.90
54431;DHT22;40342;52.998;5.862;2023-05-28T01:58:43;11.80;99.90
54431;DHT22;40342;52.998;5.862;2023-05-28T02:01:20;11.80;99.90
54431;DHT22;40342;52.998;5.862;2023-05-28T02:03:47;11.70;99.90
54431;DHT22;40342;52.998;5.862;2023-05-28T02:06:13;11.80;99.90
54431;DHT22;40342;52.998;5.862;2023-05-28T02:08:38;11.70;99.90
54431;DHT22;40342;52.998;5.862;2023-05-28T02:11:04;11.80;99.90
54431;DHT22;40342;52.998;5.862;2023-05-28T02:13:30;11.80;99.90
54431;DHT22;40342;52.998;5.862;2023-05-28T02:15:55;11.80;99.90
54431;DHT22;40342;52.998;5.862;2023-05-28T02:18:21;11.80;99.90
54431;DHT22;40342;52.998;5.862;2023-05-28T02:20:47;11.70;99.90
54431;DHT22;40342;52.998;5.862;2023-05-28T02:23:12;11.80;99.90
54431;DHT22;40342;52.998;5.862;2023-05-28T02:25:38;11.80;99.90
54431;DHT22;40342;52.998;5.862;2023-05-28T02:28:03;11.80;99.90
54431;DHT22;40342;52.998;5.862;2023-05-28T02:30:29;11.70;99.90
54431;DHT22;40342;52.998;5.862;2023-05-28T02:32:55;11.80;99.90
54431;DHT22;40342;52.998;5.862;2023-05-28T02:35:21;11.80;99.90
54431;DHT22;40342;52.998;5.862;2023-05-28T02:37:48;11.80;99.90
54431;DHT22;40342;52.998;5.862;2023-05-28T02:40:13;11.70;99.90
54431;DHT22;40342;52.998;5.862;2023-05-28T02:42:39;11.70;99.90
54431;DHT22;40342;52.998;5.862;2023-05-28T02:45:05;11.70;99.90
54431;DHT22;40342;52.998;5.862;2023-05-28T02:47:31;11.70;99.90
54431;DHT22;40342;52.998;5.862;2023-05-28T02:49:57;11.70;99.90
54431;DHT22;40342;52.998;5.862;2023-05-28T02:52:22;11.70;99.90
54431;DHT22;40342;52.998;5.862;2023-05-28T02:54:48;11.70;99.90
54431;DHT22;40342;52.998;5.862;2023-05-28T02:57:14;11.60;99.90
54431;DHT22;40342;52.998;5.862;2023-05-28T02:59:39;11.60;99.90
54431;DHT22;40342;52.998;5.862;2023-05-28T03:02:05;11.60;99.90
54431;DHT22;40342;52.998;5.862;2023-05-28T03:04:31;11.60;99.90
54431;DHT22;40342;52.998;5.862;2023-05-28T03:06:57;11.60;99.90
54431;DHT22;40342;52.998;5.862;2023-05-28T03:09:22;11.70;99.90
54431;DHT22;40342;52.998;5.862;2023-05-28T03:11:48;11.60;99.90
54431;DHT22;40342;52.998;5.862;2023-05-28T03:14:15;11.60;99.90
54431;DHT22;40342;52.998;5.862;2023-05-28T03:16:41;11.60;99.90
54431;DHT22;40342;52.998;5.862;2023-05-28T03:19:06;11.60;99.90
54431;DHT22;40342;52.998;5.862;2023-05-28T03:21:32;11.60;99.90
54431;DHT22;40342;52.998;5.862;2023-05-28T03:23:57;11.60;99.90
54431;DHT22;40342;52.998;5.862;2023-05-28T03:26:23;11.60;99.90
54431;DHT22;40342;52.998;5.862;2023-05-28T03:28:48;11.60;99.90
54431;DHT22;40342;52.998;5.862;2023-05-28T03:31:14;11.60;99.90
54431;DHT22;40342;52.998;5.862;2023-05-28T03:33:40;11.60;99.90
54431;DHT22;40342;52.998;5.862;2023-05-28T03:36:05;11.60;99.90
54431;DHT22;40342;52.998;5.862;2023-05-28T03:38:32;11.60;99.90
54431;DHT22;40342;52.998;5.862;2023-05-28T03:40:58;11.60;99.90
54431;DHT22;40342;52.998;5.862;2023-05-28T03:43:25;11.50;99.90
54431;DHT22;40342;52.998;5.862;2023-05-28T03:45:50;11.50;99.90
54431;DHT22;40342;52.998;5.862;2023-05-28T03:48:16;11.50;99.90
54431;DHT22;40342;52.998;5.862;2023-05-28T03:50:41;11.50;99.90
54431;DHT22;40342;52.998;5.862;2023-05-28T03:53:07;11.50;99.90
54431;DHT22;40342;52.998;5.862;2023-05-28T03:55:33;11.50;99.90
54431;DHT22;40342;52.998;5.862;2023-05-28T03:58:00;11.50;99.90
54431;DHT22;40342;52.998;5.862;2023-05-28T04:00:26;11.50;99.90
54431;DHT22;40342;52.998;5.862;2023-05-28T04:02:51;11.50;99.90
54431;DHT22;40342;52.998;5.862;2023-05-28T04:05:17;11.50;99.90
54431;DHT22;40342;52.998;5.862;2023-05-28T04:07:42;11.50;99.90
54431;DHT22;40342;52.998;5.862;2023-05-28T04:10:08;11.10;99.90
54431;DHT22;40342;52.998;5.862;2023-05-28T04:12:34;11.50;99.90
54431;DHT22;40342;52.998;5.862;2023-05-28T04:15:00;11.40;99.90
54431;DHT22;40342;52.998;5.862;2023-05-28T04:17:26;11.40;99.90
54431;DHT22;40342;52.998;5.862;2023-05-28T04:19:55;11.40;99.90
54431;DHT22;40342;52.998;5.862;2023-05-28T04:22:21;11.40;99.90
54431;DHT22;40342;52.998;5.862;2023-05-28T04:24:49;11.40;99.90
54431;DHT22;40342;52.998;5.862;2023-05-28T04:27:17;11.40;99.90
54431;DHT22;40342;52.998;5.862;2023-05-28T04:29:42;11.40;99.90
54431;DHT22;40342;52.998;5.862;2023-05-28T04:32:09;11.40;99.90
54431;DHT22;40342;52.998;5.862;2023-05-28T04:34:35;11.40;99.90
54431;DHT22;40342;52.998;5.862;2023-05-28T04:37:02;11.50;99.90
54431;DHT22;40342;52.998;5.862;2023-05-28T04:39:29;11.50;99.90
54431;DHT22;40342;52.998;5.862;2023-05-28T04:41:55;11.50;99.90
54431;DHT22;40342;52.998;5.862;2023-05-28T04:44:21;11.50;99.90
54431;DHT22;40342;52.998;5.862;2023-05-28T04:46:51;11.50;99.90
54431;DHT22;40342;52.998;5.862;2023-05-28T04:49:17;11.50;99.90
54431;DHT22;40342;52.998;5.862;2023-05-28T04:51:42;11.50;99.90
54431;DHT22;40342;52.998;5.862;2023-05-28T04:54:09;11.50;99.90
54431;DHT22;40342;52.998;5.862;2023-05-28T04:56:37;11.60;99.90
54431;DHT22;40342;52.998;5.862;2023-05-28T04:59:03;11.60;99.90
54431;DHT22;40342;52.998;5.862;2023-05-28T05:01:31;11.60;99.90
54431;DHT22;40342;52.998;5.862;2023-05-28T05:03:59;11.60;99.90
54431;DHT22;40342;52.998;5.862;2023-05-28T05:06:24;11.60;99.90
54431;DHT22;40342;52.998;5.862;2023-05-28T05:08:50;11.70;99.90
54431;DHT22;40342;52.998;5.862;2023-05-28T05:11:15;11.70;99.90
54431;DHT22;40342;52.998;5.862;2023-05-28T05:13:41;11.70;99.90
54431;DHT22;40342;52.998;5.862;2023-05-28T05:16:06;11.70;99.90
54431;DHT22;40342;52.998;5.862;2023-05-28T05:18:32;11.80;99.90
54431;DHT22;40342;52.998;5.862;2023-05-28T05:20:58;11.80;99.90
54431;DHT22;40342;52.998;5.862;2023-05-28T05:23:23;11.80;99.90
54431;DHT22;40342;52.998;5.862;2023-05-28T05:25:49;11.80;99.90
54431;DHT22;40342;52.998;5.862;2023-05-28T05:28:14;11.80;99.90
54431;DHT22;40342;52.998;5.862;2023-05-28T05:30:40;11.90;99.90
54431;DHT22;40342;52.998;5.862;2023-05-28T05:33:06;11.90;99.90
54431;DHT22;40342;52.998;5.862;2023-05-28T05:35:31;11.90;99.90
54431;DHT22;40342;52.998;5.862;2023-05-28T05:37:57;11.90;99.90
54431;DHT22;40342;52.998;5.862;2023-05-28T05:40:22;11.90;99.90
54431;DHT22;40342;52.998;5.862;2023-05-28T05:42:48;11.90;99.90
54431;DHT22;40342;52.998;5.862;2023-05-28T05:45:13;11.90;99.90
54431;DHT22;40342;52.998;5.862;2023-05-28T05:47:39;12.00;99.90
54431;DHT22;40342;52.998;5.862;2023-05-28T05:50:05;12.00;99.90
54431;DHT22;40342;52.998;5.862;2023-05-28T05:52:31;12.00;99.90
54431;DHT22;40342;52.998;5.862;2023-05-28T05:54:57;12.10;99.90
54431;DHT22;40342;52.998;5.862;2023-05-28T05:57:23;12.10;99.90
54431;DHT22;40342;52.998;5.862;2023-05-28T05:59:49;12.20;99.90
54431;DHT22;40342;52.998;5.862;2023-05-28T06:02:14;12.20;99.90
54431;DHT22;40342;52.998;5.862;2023-05-28T06:04:40;12.30;99.90
54431;DHT22;40342;52.998;5.862;2023-05-28T06:07:06;12.40;99.90
54431;DHT22;40342;52.998;5.862;2023-05-28T06:09:35;12.40;99.90
54431;DHT22;40342;52.998;5.862;2023-05-28T06:12:00;12.40;99.90
54431;DHT22;40342;52.998;5.862;2023-05-28T06:14:27;12.50;99.90
54431;DHT22;40342;52.998;5.862;2023-05-28T06:16:53;12.60;99.90
54431;DHT22;40342;52.998;5.862;2023-05-28T06:19:19;12.60;99.90
54431;DHT22;40342;52.998;5.862;2023-05-28T06:21:45;12.70;99.90
54431;DHT22;40342;52.998;5.862;2023-05-28T06:24:10;12.70;99.90
54431;DHT22;40342;52.998;5.862;2023-05-28T06:26:36;12.80;99.90
54431;DHT22;40342;52.998;5.862;2023-05-28T06:29:02;12.80;99.90
54431;DHT22;40342;52.998;5.862;2023-05-28T06:31:28;12.90;99.90
54431;DHT22;40342;52.998;5.862;2023-05-28T06:33:53;13.00;99.90
54431;DHT22;40342;52.998;5.862;2023-05-28T06:36:19;13.10;99.90
54431;DHT22;40342;52.998;5.862;2023-05-28T06:38:45;13.10;99.90
54431;DHT22;40342;52.998;5.862;2023-05-28T06:41:10;13.20;99.90
54431;DHT22;40342;52.998;5.862;2023-05-28T06:43:37;13.20;99.90
54431;DHT22;40342;52.998;5.862;2023-05-28T06:46:03;13.30;99.90
54431;DHT22;40342;52.998;5.862;2023-05-28T06:48:29;13.40;99.90
54431;DHT22;40342;52.998;5.862;2023-05-28T06:50:54;13.40;99.90
54431;DHT22;40342;52.998;5.862;2023-05-28T06:53:21;13.50;99.90
54431;DHT22;40342;52.998;5.862;2023-05-28T06:55:47;13.50;99.90
54431;DHT22;40342;52.998;5.862;2023-05-28T06:58:12;13.60;99.90
54431;DHT22;40342;52.998;5.862;2023-05-28T07:00:38;13.70;99.90
54431;DHT22;40342;52.998;5.862;2023-05-28T07:03:03;13.70;99.90
54431;DHT22;40342;52.998;5.862;2023-05-28T07:05:29;13.70;99.90
54431;DHT22;40342;52.998;5.862;2023-05-28T07:07:55;13.80;99.90
54431;DHT22;40342;52.998;5.862;2023-05-28T07:10:20;13.90;99.90
54431;DHT22;40342;52.998;5.862;2023-05-28T07:12:46;13.90;99.90
54431;DHT22;40342;52.998;5.862;2023-05-28T07:15:11;14.00;99.90
54431;DHT22;40342;52.998;5.862;2023-05-28T07:17:37;14.10;99.90
54431;DHT22;40342;52.998;5.862;2023-05-28T07:20:03;14.10;99.90
54431;DHT22;40342;52.998;5.862;2023-05-28T07:22:31;14.20;99.90
54431;DHT22;40342;52.998;5.862;2023-05-28T07:24:56;14.20;99.90
54431;DHT22;40342;52.998;5.862;2023-05-28T07:27:22;14.30;99.90
54431;DHT22;40342;52.998;5.862;2023-05-28T07:29:48;14.40;99.90
54431;DHT22;40342;52.998;5.862;2023-05-28T07:32:13;14.40;99.90
54431;DHT22;40342;52.998;5.862;2023-05-28T07:34:39;14.50;99.90
54431;DHT22;40342;52.998;5.862;2023-05-28T07:37:06;14.50;99.90
54431;DHT22;40342;52.998;5.862;2023-05-28T07:39:31;14.60;99.90
54431;DHT22;40342;52.998;5.862;2023-05-28T07:41:57;14.60;99.90
54431;DHT22;40342;52.998;5.862;2023-05-28T07:44:22;14.60;99.90
54431;DHT22;40342;52.998;5.862;2023-05-28T07:46:48;14.70;99.90
54431;DHT22;40342;52.998;5.862;2023-05-28T07:49:13;14.70;99.90
54431;DHT22;40342;52.998;5.862;2023-05-28T07:51:39;14.80;99.90
54431;DHT22;40342;52.998;5.862;2023-05-28T07:54:04;14.80;99.90
54431;DHT22;40342;52.998;5.862;2023-05-28T07:56:31;14.80;99.90
54431;DHT22;40342;52.998;5.862;2023-05-28T07:58:56;14.90;99.90
54431;DHT22;40342;52.998;5.862;2023-05-28T08:01:23;14.90;99.90
54431;DHT22;40342;52.998;5.862;2023-05-28T08:03:49;15.00;99.90
54431;DHT22;40342;52.998;5.862;2023-05-28T08:06:17;15.00;99.90
54431;DHT22;40342;52.998;5.862;2023-05-28T08:08:43;15.00;99.90
54431;DHT22;40342;52.998;5.862;2023-05-28T08:11:09;15.10;99.90
54431;DHT22;40342;52.998;5.862;2023-05-28T08:13:39;15.10;99.90
54431;DHT22;40342;52.998;5.862;2023-05-28T08:16:04;15.20;99.90
54431;DHT22;40342;52.998;5.862;2023-05-28T08:18:30;15.20;99.90
54431;DHT22;40342;52.998;5.862;2023-05-28T08:20:56;15.20;99.90
54431;DHT22;40342;52.998;5.862;2023-05-28T08:23:21;15.30;99.90
54431;DHT22;40342;52.998;5.862;2023-05-28T08:25:47;15.30;99.90
54431;DHT22;40342;52.998;5.862;2023-05-28T08:28:12;15.40;99.90
54431;DHT22;40342;52.998;5.862;2023-05-28T08:30:39;15.50;99.90
54431;DHT22;40342;52.998;5.862;2023-05-28T08:33:04;15.50;99.90
54431;DHT22;40342;52.998;5.862;2023-05-28T08:35:30;15.50;99.90
54431;DHT22;40342;52.998;5.862;2023-05-28T08:37:55;15.60;99.90
54431;DHT22;40342;52.998;5.862;2023-05-28T08:40:21;15.60;99.90
54431;DHT22;40342;52.998;5.862;2023-05-28T08:42:47;15.70;99.90
54431;DHT22;40342;52.998;5.862;2023-05-28T08:45:14;15.80;99.90
54431;DHT22;40342;52.998;5.862;2023-05-28T08:47:40;15.80;99.90
54431;DHT22;40342;52.998;5.862;2023-05-28T08:50:07;15.90;99.90
54431;DHT22;40342;52.998;5.862;2023-05-28T08:52:33;16.00;99.90
54431;DHT22;40342;52.998;5.862;2023-05-28T08:54:59;16.00;99.90
54431;DHT22;40342;52.998;5.862;2023-05-28T08:57:28;16.10;99.90
54431;DHT22;40342;52.998;5.862;2023-05-28T08:59:55;16.20;99.90
54431;DHT22;40342;52.998;5.862;2023-05-28T09:02:23;16.30;99.90
54431;DHT22;40342;52.998;5.862;2023-05-28T09:04:49;16.40;99.90
54431;DHT22;40342;52.998;5.862;2023-05-28T09:07:15;16.40;99.90
54431;DHT22;40342;52.998;5.862;2023-05-28T09:09:41;16.50;99.90
54431;DHT22;40342;52.998;5.862;2023-05-28T09:12:20;16.60;99.90
54431;DHT22;40342;52.998;5.862;2023-05-28T09:14:49;16.70;99.90
54431;DHT22;40342;52.998;5.862;2023-05-28T09:17:15;16.80;99.90
54431;DHT22;40342;52.998;5.862;2023-05-28T09:19:50;16.90;99.90
54431;DHT22;40342;52.998;5.862;2023-05-28T09:22:17;17.00;99.90
54431;DHT22;40342;52.998;5.862;2023-05-28T09:24:51;17.10;99.90
54431;DHT22;40342;52.998;5.862;2023-05-28T09:27:17;17.20;99.90
54431;DHT22;40342;52.998;5.862;2023-05-28T09:29:45;17.40;99.90
54431;DHT22;40342;52.998;5.862;2023-05-28T09:32:12;17.40;99.90
54431;DHT22;40342;52.998;5.862;2023-05-28T09:34:42;17.50;99.90
54431;DHT22;40342;52.998;5.862;2023-05-28T09:37:08;17.60;99.90
54431;DHT22;40342;52.998;5.862;2023-05-28T09:39:33;17.80;99.90
54431;DHT22;40342;52.998;5.862;2023-05-28T09:42:00;17.90;99.90
54431;DHT22;40342;52.998;5.862;2023-05-28T09:44:32;18.00;99.90
54431;DHT22;40342;52.998;5.862;2023-05-28T09:46:57;18.10;99.90
54431;DHT22;40342;52.998;5.862;2023-05-28T09:49:25;18.30;99.90
54431;DHT22;40342;52.998;5.862;2023-05-28T09:51:52;18.40;99.90
54431;DHT22;40342;52.998;5.862;2023-05-28T09:54:22;18.50;99.90
54431;DHT22;40342;52.998;5.862;2023-05-28T09:56:51;18.60;99.90
54431;DHT22;40342;52.998;5.862;2023-05-28T09:59:18;18.70;99.90
54431;DHT22;40342;52.998;5.862;2023-05-28T10:04:37;18.90;99.90
54431;DHT22;40342;52.998;5.862;2023-05-28T10:07:04;19.00;99.90
54431;DHT22;40342;52.998;5.862;2023-05-28T10:09:32;19.10;99.90
54431;DHT22;40342;52.998;5.862;2023-05-28T10:12:04;19.10;99.90
54431;DHT22;40342;52.998;5.862;2023-05-28T10:14:32;19.20;99.90
54431;DHT22;40342;52.998;5.862;2023-05-28T10:16:58;19.30;99.90
54431;DHT22;40342;52.998;5.862;2023-05-28T10:19:25;19.40;99.90
54431;DHT22;40342;52.998;5.862;2023-05-28T10:21:51;19.50;99.90
54431;DHT22;40342;52.998;5.862;2023-05-28T10:24:16;19.60;99.90
54431;DHT22;40342;52.998;5.862;2023-05-28T10:26:43;19.70;99.90
54431;DHT22;40342;52.998;5.862;2023-05-28T10:29:09;19.80;99.90
54431;DHT22;40342;52.998;5.862;2023-05-28T10:31:34;19.90;99.90
54431;DHT22;40342;52.998;5.862;2023-05-28T10:34:00;20.00;99.80
54431;DHT22;40342;52.998;5.862;2023-05-28T10:36:26;20.00;99.70
54431;DHT22;40342;52.998;5.862;2023-05-28T10:41:23;20.20;98.40
54431;DHT22;40342;52.998;5.862;2023-05-28T10:43:49;20.30;97.00
54431;DHT22;40342;52.998;5.862;2023-05-28T10:49:14;20.40;96.30
54431;DHT22;40342;52.998;5.862;2023-05-28T10:54:23;20.50;91.50
54431;DHT22;40342;52.998;5.862;2023-05-28T10:57:18;20.60;91.60
54431;DHT22;40342;52.998;5.862;2023-05-28T10:59:50;20.60;91.40
54431;DHT22;40342;52.998;5.862;2023-05-28T11:02:27;20.80;92.10
54431;DHT22;40342;52.998;5.862;2023-05-28T11:04:58;20.90;92.10
54431;DHT22;40342;52.998;5.862;2023-05-28T11:07:32;20.90;92.70
54431;DHT22;40342;52.998;5.862;2023-05-28T11:09:59;21.10;93.40
54431;DHT22;40342;52.998;5.862;2023-05-28T11:12:29;21.20;93.50
54431;DHT22;40342;52.998;5.862;2023-05-28T11:14:56;21.40;92.70
54431;DHT22;40342;52.998;5.862;2023-05-28T11:17:22;21.40;91.50
54431;DHT22;40342;52.998;5.862;2023-05-28T11:19:51;21.50;92.10
54431;DHT22;40342;52.998;5.862;2023-05-28T11:22:18;21.60;92.20
54431;DHT22;40342;52.998;5.862;2023-05-28T11:24:58;21.70;92.00
54431;DHT22;40342;52.998;5.862;2023-05-28T11:27:28;21.80;92.20
54431;DHT22;40342;52.998;5.862;2023-05-28T11:29:57;21.90;92.60
54431;DHT22;40342;52.998;5.862;2023-05-28T11:32:24;21.90;92.40
54431;DHT22;40342;52.998;5.862;2023-05-28T11:34:51;22.00;92.90
54431;DHT22;40342;52.998;5.862;2023-05-28T11:37:23;22.10;92.30
54431;DHT22;40342;52.998;5.862;2023-05-28T11:39:51;22.10;92.80
54431;DHT22;40342;52.998;5.862;2023-05-28T11:42:18;22.20;93.00
54431;DHT22;40342;52.998;5.862;2023-05-28T11:44:48;22.30;92.90
54431;DHT22;40342;52.998;5.862;2023-05-28T11:47:14;22.40;93.50
54431;DHT22;40342;52.998;5.862;2023-05-28T11:49:41;22.50;93.50
54431;DHT22;40342;52.998;5.862;2023-05-28T11:52:23;22.60;93.30
54431;DHT22;40342;52.998;5.862;2023-05-28T11:54:54;22.70;93.70
54431;DHT22;40342;52.998;5.862;2023-05-28T11:57:23;22.80;93.80
54431;DHT22;40342;52.998;5.862;2023-05-28T11:59:59;22.90;94.40
54431;DHT22;40342;52.998;5.862;2023-05-28T12:02:25;22.90;93.20
54431;DHT22;40342;52.998;5.862;2023-05-28T12:04:59;23.00;94.20
54431;DHT22;40342;52.998;5.862;2023-05-28T12:10:08;23.20;93.40
54431;DHT22;40342;52.998;5.862;2023-05-28T12:12:45;23.20;94.80
54431;DHT22;40342;52.998;5.862;2023-05-28T12:15:11;23.30;94.30
54431;DHT22;40342;52.998;5.862;2023-05-28T12:17:38;23.40;94.00
54431;DHT22;40342;52.998;5.862;2023-05-28T12:20:05;23.40;94.10
54431;DHT22;40342;52.998;5.862;2023-05-28T12:22:32;23.40;93.60
54431;DHT22;40342;52.998;5.862;2023-05-28T12:24:58;23.40;94.20
54431;DHT22;40342;52.998;5.862;2023-05-28T12:27:24;23.50;94.60
54431;DHT22;40342;52.998;5.862;2023-05-28T12:29:49;23.50;95.30
54431;DHT22;40342;52.998;5.862;2023-05-28T12:32:15;23.60;96.20
54431;DHT22;40342;52.998;5.862;2023-05-28T12:34:41;23.70;96.30
54431;DHT22;40342;52.998;5.862;2023-05-28T12:37:06;23.70;95.50
54431;DHT22;40342;52.998;5.862;2023-05-28T12:39:32;23.80;95.40
54431;DHT22;40342;52.998;5.862;2023-05-28T12:41:58;23.80;95.30
54431;DHT22;40342;52.998;5.862;2023-05-28T12:44:23;23.70;94.90
54431;DHT22;40342;52.998;5.862;2023-05-28T12:46:49;23.70;95.30
54431;DHT22;40342;52.998;5.862;2023-05-28T12:49:16;23.80;95.60
54431;DHT22;40342;52.998;5.862;2023-05-28T12:51:41;23.80;95.50
54431;DHT22;40342;52.998;5.862;2023-05-28T12:54:07;23.90;95.60
54431;DHT22;40342;52.998;5.862;2023-05-28T12:56:33;23.80;95.60
54431;DHT22;40342;52.998;5.862;2023-05-28T12:58:59;23.80;94.40
54431;DHT22;40342;52.998;5.862;2023-05-28T13:01:24;23.70;94.70
54431;DHT22;40342;52.998;5.862;2023-05-28T13:03:51;23.70;95.10
54431;DHT22;40342;52.998;5.862;2023-05-28T13:06:19;23.80;94.10
54431;DHT22;40342;52.998;5.862;2023-05-28T13:08:45;23.70;93.80
54431;DHT22;40342;52.998;5.862;2023-05-28T13:11:11;23.70;94.00
54431;DHT22;40342;52.998;5.862;2023-05-28T13:13:37;23.70;93.70
54431;DHT22;40342;52.998;5.862;2023-05-28T13:16:03;23.60;93.60
54431;DHT22;40342;52.998;5.862;2023-05-28T13:18:29;23.60;93.90
54431;DHT22;40342;52.998;5.862;2023-05-28T13:20:54;23.50;94.20
54431;DHT22;40342;52.998;5.862;2023-05-28T13:23:20;23.60;94.80
54431;DHT22;40342;52.998;5.862;2023-05-28T13:25:45;23.60;94.70
54431;DHT22;40342;52.998;5.862;2023-05-28T13:28:11;23.70;94.90
54431;DHT22;40342;52.998;5.862;2023-05-28T13:30:36;23.70;94.90
54431;DHT22;40342;52.998;5.862;2023-05-28T13:33:02;23.70;95.20
54431;DHT22;40342;52.998;5.862;2023-05-28T13:35:28;23.80;95.30
54431;DHT22;40342;52.998;5.862;2023-05-28T13:37:53;23.80;94.90
54431;DHT22;40342;52.998;5.862;2023-05-28T13:40:21;23.80;94.20
54431;DHT22;40342;52.998;5.862;2023-05-28T13:42:48;23.70;94.30
54431;DHT22;40342;52.998;5.862;2023-05-28T13:45:15;23.70;94.70
54431;DHT22;40342;52.998;5.862;2023-05-28T13:47:41;23.70;94.30
54431;DHT22;40342;52.998;5.862;2023-05-28T13:50:07;23.60;93.90
54431;DHT22;40342;52.998;5.862;2023-05-28T13:52:33;23.60;94.20
54431;DHT22;40342;52.998;5.862;2023-05-28T13:54:58;23.60;94.50
54431;DHT22;40342;52.998;5.862;2023-05-28T13:57:24;23.70;94.80
54431;DHT22;40342;52.998;5.862;2023-05-28T13:59:49;23.70;94.50
54431;DHT22;40342;52.998;5.862;2023-05-28T14:02:15;23.80;94.60
54431;DHT22;40342;52.998;5.862;2023-05-28T14:04:41;23.70;93.70
54431;DHT22;40342;52.998;5.862;2023-05-28T14:07:06;23.60;93.40
54431;DHT22;40342;52.998;5.862;2023-05-28T14:09:34;23.60;93.70
54431;DHT22;40342;52.998;5.862;2023-05-28T14:12:02;23.50;94.20
54431;DHT22;40342;52.998;5.862;2023-05-28T14:14:28;23.60;95.00
54431;DHT22;40342;52.998;5.862;2023-05-28T14:16:53;23.60;95.50
54431;DHT22;40342;52.998;5.862;2023-05-28T14:19:19;23.60;95.60
54431;DHT22;40342;52.998;5.862;2023-05-28T14:21:45;23.60;96.00
54431;DHT22;40342;52.998;5.862;2023-05-28T14:24:10;23.70;95.90
54431;DHT22;40342;52.998;5.862;2023-05-28T14:26:36;23.60;95.00
54431;DHT22;40342;52.998;5.862;2023-05-28T14:29:02;23.50;95.10
54431;DHT22;40342;52.998;5.862;2023-05-28T14:31:28;23.40;95.70
54431;DHT22;40342;52.998;5.862;2023-05-28T14:33:53;23.40;96.10
54431;DHT22;40342;52.998;5.862;2023-05-28T14:36:19;23.20;96.00
54431;DHT22;40342;52.998;5.862;2023-05-28T14:38:44;23.30;96.30
